ESNK

Kramfors Sollefteå Airport

Kramfors / Sollefteå, Sweden
METAR ESNK 220950Z AUTO 16009KT 9999 FEW230/// 22/10 Q1018
Observed Flight Rules
May-22 @ 09:50 UTC (19 minutes ago) Visual Flight Rules
Wind Visibility Clouds
160° at 9 knots 10,000+ meters
  • Few at 23,000' AGL
Temperatures Readings
Current 22°C / 72°F
Dewpoint 10°C / 50°F
Humidity 47%
Altimeter 30.06" Hg
Pressure 1018 hPa
Elevation 19
METAR ESNK 220950Z AUTO 16009KT 9999 FEW230/// 22/10 Q1018
Observed Flight Rules
May-22 @ 09:50 UTC
(19 minutes ago)
VFR
Wind Visibility
160° at 9 knots 10,000+ meters
Clouds
  • Few at 23,000' AGL
Temperature Dewpoint
22°C / 72°F 10°C / 50°F
Humidity Altimeter Pressure
47% 30.06" Hg 1018 hPa